sensor_id;sensor_type;location;lat;lon;timestamp;temperature;humidity
13322;DHT22;6730;46.248;6.930;2023-07-31T00:00:35;16.60;99.90
13322;DHT22;6730;46.248;6.930;2023-07-31T00:03:00;16.70;99.90
13322;DHT22;6730;46.248;6.930;2023-07-31T00:05:26;16.90;99.90
13322;DHT22;6730;46.248;6.930;2023-07-31T00:07:54;16.90;99.90
13322;DHT22;6730;46.248;6.930;2023-07-31T00:10:20;16.90;99.90
13322;DHT22;6730;46.248;6.930;2023-07-31T00:12:46;16.90;99.90
13322;DHT22;6730;46.248;6.930;2023-07-31T00:15:13;16.50;99.90
13322;DHT22;6730;46.248;6.930;2023-07-31T00:17:39;16.40;99.90
13322;DHT22;6730;46.248;6.930;2023-07-31T00:20:06;16.50;99.90
13322;DHT22;6730;46.248;6.930;2023-07-31T00:22:36;16.70;99.90
13322;DHT22;6730;46.248;6.930;2023-07-31T00:25:02;16.80;99.90
13322;DHT22;6730;46.248;6.930;2023-07-31T00:27:30;16.60;99.90
13322;DHT22;6730;46.248;6.930;2023-07-31T00:29:56;16.60;99.90
13322;DHT22;6730;46.248;6.930;2023-07-31T00:32:22;16.40;99.90
13322;DHT22;6730;46.248;6.930;2023-07-31T00:34:47;16.20;99.90
13322;DHT22;6730;46.248;6.930;2023-07-31T00:37:13;16.20;99.90
13322;DHT22;6730;46.248;6.930;2023-07-31T00:39:40;16.30;99.90
13322;DHT22;6730;46.248;6.930;2023-07-31T00:42:08;16.50;99.90
13322;DHT22;6730;46.248;6.930;2023-07-31T00:44:34;16.60;99.90
13322;DHT22;6730;46.248;6.930;2023-07-31T00:47:02;16.40;99.90
13322;DHT22;6730;46.248;6.930;2023-07-31T00:49:28;16.40;99.90
13322;DHT22;6730;46.248;6.930;2023-07-31T00:51:54;16.40;99.90
13322;DHT22;6730;46.248;6.930;2023-07-31T00:54:22;16.10;99.90
13322;DHT22;6730;46.248;6.930;2023-07-31T00:56:50;16.10;99.90
13322;DHT22;6730;46.248;6.930;2023-07-31T00:59:19;16.40;99.90
13322;DHT22;6730;46.248;6.930;2023-07-31T01:01:45;16.30;99.90
13322;DHT22;6730;46.248;6.930;2023-07-31T01:04:11;16.40;99.90
13322;DHT22;6730;46.248;6.930;2023-07-31T01:07:27;16.40;99.90
13322;DHT22;6730;46.248;6.930;2023-07-31T01:10:08;16.50;99.90
13322;DHT22;6730;46.248;6.930;2023-07-31T01:12:38;16.20;99.90
13322;DHT22;6730;46.248;6.930;2023-07-31T01:15:08;16.00;99.90
13322;DHT22;6730;46.248;6.930;2023-07-31T01:17:38;16.10;99.90
13322;DHT22;6730;46.248;6.930;2023-07-31T01:20:09;15.90;99.90
13322;DHT22;6730;46.248;6.930;2023-07-31T01:28:34;15.80;99.90
13322;DHT22;6730;46.248;6.930;2023-07-31T01:31:07;15.60;99.90
13322;DHT22;6730;46.248;6.930;2023-07-31T01:33:33;15.70;99.90
13322;DHT22;6730;46.248;6.930;2023-07-31T01:35:59;15.90;99.90
13322;DHT22;6730;46.248;6.930;2023-07-31T01:38:25;15.90;99.90
13322;DHT22;6730;46.248;6.930;2023-07-31T01:40:52;16.00;99.90
13322;DHT22;6730;46.248;6.930;2023-07-31T01:43:18;16.10;99.90
13322;DHT22;6730;46.248;6.930;2023-07-31T01:45:44;16.20;99.90
13322;DHT22;6730;46.248;6.930;2023-07-31T01:48:09;16.20;99.90
13322;DHT22;6730;46.248;6.930;2023-07-31T01:51:00;16.20;99.90
13322;DHT22;6730;46.248;6.930;2023-07-31T01:53:25;16.10;99.90
13322;DHT22;6730;46.248;6.930;2023-07-31T01:55:51;16.00;99.90
13322;DHT22;6730;46.248;6.930;2023-07-31T01:58:18;16.10;99.90
13322;DHT22;6730;46.248;6.930;2023-07-31T02:00:44;16.10;99.90
13322;DHT22;6730;46.248;6.930;2023-07-31T02:03:09;16.20;99.90
13322;DHT22;6730;46.248;6.930;2023-07-31T02:05:44;16.10;99.90
13322;DHT22;6730;46.248;6.930;2023-07-31T02:08:10;16.00;99.90
13322;DHT22;6730;46.248;6.930;2023-07-31T02:10:35;16.10;99.90
13322;DHT22;6730;46.248;6.930;2023-07-31T02:13:01;16.00;99.90
13322;DHT22;6730;46.248;6.930;2023-07-31T02:15:29;16.00;99.90
13322;DHT22;6730;46.248;6.930;2023-07-31T02:18:21;15.80;99.90
13322;DHT22;6730;46.248;6.930;2023-07-31T02:20:52;15.80;99.90
13322;DHT22;6730;46.248;6.930;2023-07-31T02:23:19;15.50;99.90
13322;DHT22;6730;46.248;6.930;2023-07-31T02:25:45;15.50;99.90
13322;DHT22;6730;46.248;6.930;2023-07-31T02:28:11;15.70;99.90
13322;DHT22;6730;46.248;6.930;2023-07-31T02:30:37;15.60;99.90
13322;DHT22;6730;46.248;6.930;2023-07-31T02:33:03;15.30;99.90
13322;DHT22;6730;46.248;6.930;2023-07-31T02:35:29;15.40;99.90
13322;DHT22;6730;46.248;6.930;2023-07-31T02:37:54;15.50;99.90
13322;DHT22;6730;46.248;6.930;2023-07-31T02:40:20;15.80;99.90
13322;DHT22;6730;46.248;6.930;2023-07-31T02:42:46;15.70;99.90
13322;DHT22;6730;46.248;6.930;2023-07-31T02:45:12;15.80;99.90
13322;DHT22;6730;46.248;6.930;2023-07-31T02:47:38;15.50;99.90
13322;DHT22;6730;46.248;6.930;2023-07-31T02:50:04;15.70;99.90
13322;DHT22;6730;46.248;6.930;2023-07-31T02:52:30;15.70;99.90
13322;DHT22;6730;46.248;6.930;2023-07-31T02:54:56;15.70;99.90
13322;DHT22;6730;46.248;6.930;2023-07-31T02:57:25;15.80;99.90
13322;DHT22;6730;46.248;6.930;2023-07-31T02:59:51;15.80;99.90
13322;DHT22;6730;46.248;6.930;2023-07-31T03:02:17;15.40;99.90
13322;DHT22;6730;46.248;6.930;2023-07-31T03:04:42;15.50;99.90
13322;DHT22;6730;46.248;6.930;2023-07-31T03:07:08;15.50;99.90
13322;DHT22;6730;46.248;6.930;2023-07-31T03:09:36;15.60;99.90
13322;DHT22;6730;46.248;6.930;2023-07-31T03:12:02;15.80;99.90
13322;DHT22;6730;46.248;6.930;2023-07-31T03:14:28;15.70;99.90
13322;DHT22;6730;46.248;6.930;2023-07-31T03:16:54;15.40;99.90
13322;DHT22;6730;46.248;6.930;2023-07-31T03:19:20;15.50;99.90
13322;DHT22;6730;46.248;6.930;2023-07-31T03:21:46;15.30;99.90
13322;DHT22;6730;46.248;6.930;2023-07-31T03:24:12;15.40;99.90
13322;DHT22;6730;46.248;6.930;2023-07-31T03:26:38;15.50;99.90
13322;DHT22;6730;46.248;6.930;2023-07-31T03:29:07;15.50;99.90
13322;DHT22;6730;46.248;6.930;2023-07-31T03:31:33;15.40;99.90
13322;DHT22;6730;46.248;6.930;2023-07-31T03:33:58;15.50;99.90
13322;DHT22;6730;46.248;6.930;2023-07-31T03:36:24;15.50;99.90
13322;DHT22;6730;46.248;6.930;2023-07-31T03:38:51;15.40;99.90
13322;DHT22;6730;46.248;6.930;2023-07-31T03:41:17;15.40;99.90
13322;DHT22;6730;46.248;6.930;2023-07-31T03:43:43;15.40;99.90
13322;DHT22;6730;46.248;6.930;2023-07-31T03:46:08;15.40;99.90
13322;DHT22;6730;46.248;6.930;2023-07-31T03:48:34;15.60;99.90
13322;DHT22;6730;46.248;6.930;2023-07-31T03:51:00;15.50;99.90
13322;DHT22;6730;46.248;6.930;2023-07-31T03:53:26;15.40;99.90
13322;DHT22;6730;46.248;6.930;2023-07-31T03:55:51;15.40;99.90
13322;DHT22;6730;46.248;6.930;2023-07-31T03:58:17;15.30;99.90
13322;DHT22;6730;46.248;6.930;2023-07-31T04:00:43;15.20;99.90
13322;DHT22;6730;46.248;6.930;2023-07-31T04:03:19;15.00;99.90
13322;DHT22;6730;46.248;6.930;2023-07-31T04:05:44;14.70;99.90
13322;DHT22;6730;46.248;6.930;2023-07-31T04:08:10;14.50;99.90
13322;DHT22;6730;46.248;6.930;2023-07-31T04:10:36;14.90;99.90
13322;DHT22;6730;46.248;6.930;2023-07-31T04:13:02;15.30;99.90
13322;DHT22;6730;46.248;6.930;2023-07-31T04:15:27;15.60;99.90
13322;DHT22;6730;46.248;6.930;2023-07-31T04:17:53;15.40;99.90
13322;DHT22;6730;46.248;6.930;2023-07-31T04:20:22;15.50;99.90
13322;DHT22;6730;46.248;6.930;2023-07-31T04:22:50;15.60;99.90
13322;DHT22;6730;46.248;6.930;2023-07-31T04:25:15;15.60;99.90
13322;DHT22;6730;46.248;6.930;2023-07-31T04:27:41;15.40;99.90
13322;DHT22;6730;46.248;6.930;2023-07-31T04:30:08;15.60;99.90
13322;DHT22;6730;46.248;6.930;2023-07-31T04:32:37;15.50;99.90
13322;DHT22;6730;46.248;6.930;2023-07-31T04:35:16;15.20;99.90
13322;DHT22;6730;46.248;6.930;2023-07-31T04:37:47;14.90;99.90
13322;DHT22;6730;46.248;6.930;2023-07-31T04:40:23;15.00;99.90
13322;DHT22;6730;46.248;6.930;2023-07-31T04:43:09;15.10;99.90
13322;DHT22;6730;46.248;6.930;2023-07-31T04:45:56;15.30;99.90
13322;DHT22;6730;46.248;6.930;2023-07-31T04:48:24;15.40;99.90
13322;DHT22;6730;46.248;6.930;2023-07-31T04:50:50;15.40;99.90
13322;DHT22;6730;46.248;6.930;2023-07-31T04:53:16;15.50;99.90
13322;DHT22;6730;46.248;6.930;2023-07-31T04:55:41;15.50;99.90
13322;DHT22;6730;46.248;6.930;2023-07-31T04:58:07;15.70;99.90
13322;DHT22;6730;46.248;6.930;2023-07-31T05:00:32;15.90;99.90
13322;DHT22;6730;46.248;6.930;2023-07-31T05:02:58;16.00;99.90
13322;DHT22;6730;46.248;6.930;2023-07-31T05:05:24;16.10;99.90
13322;DHT22;6730;46.248;6.930;2023-07-31T05:07:49;16.00;99.90
13322;DHT22;6730;46.248;6.930;2023-07-31T05:10:15;16.10;99.90
13322;DHT22;6730;46.248;6.930;2023-07-31T05:12:41;16.10;99.90
13322;DHT22;6730;46.248;6.930;2023-07-31T05:15:07;16.10;99.90
13322;DHT22;6730;46.248;6.930;2023-07-31T05:17:32;16.00;99.90
13322;DHT22;6730;46.248;6.930;2023-07-31T05:19:58;16.10;99.90
13322;DHT22;6730;46.248;6.930;2023-07-31T05:22:24;16.10;99.90
13322;DHT22;6730;46.248;6.930;2023-07-31T05:24:49;16.30;99.90
13322;DHT22;6730;46.248;6.930;2023-07-31T05:27:15;16.60;99.90
13322;DHT22;6730;46.248;6.930;2023-07-31T05:29:44;16.40;99.90
13322;DHT22;6730;46.248;6.930;2023-07-31T05:32:09;16.20;99.90
13322;DHT22;6730;46.248;6.930;2023-07-31T05:34:35;16.20;99.90
13322;DHT22;6730;46.248;6.930;2023-07-31T05:37:00;16.40;99.90
13322;DHT22;6730;46.248;6.930;2023-07-31T05:39:26;16.60;99.90
13322;DHT22;6730;46.248;6.930;2023-07-31T05:41:52;16.60;99.90
13322;DHT22;6730;46.248;6.930;2023-07-31T05:44:17;16.60;99.90
13322;DHT22;6730;46.248;6.930;2023-07-31T05:46:43;16.10;99.90
13322;DHT22;6730;46.248;6.930;2023-07-31T05:49:08;16.20;99.90
13322;DHT22;6730;46.248;6.930;2023-07-31T05:51:34;16.30;99.90
13322;DHT22;6730;46.248;6.930;2023-07-31T05:54:00;16.70;99.90
13322;DHT22;6730;46.248;6.930;2023-07-31T05:56:25;17.00;99.90
13322;DHT22;6730;46.248;6.930;2023-07-31T05:58:52;16.80;99.90
13322;DHT22;6730;46.248;6.930;2023-07-31T06:01:18;17.00;99.90
13322;DHT22;6730;46.248;6.930;2023-07-31T06:03:44;17.30;99.90
13322;DHT22;6730;46.248;6.930;2023-07-31T06:06:09;17.60;99.90
13322;DHT22;6730;46.248;6.930;2023-07-31T06:08:35;17.80;99.90
13322;DHT22;6730;46.248;6.930;2023-07-31T06:11:01;17.80;99.90
13322;DHT22;6730;46.248;6.930;2023-07-31T06:13:26;17.90;99.90
13322;DHT22;6730;46.248;6.930;2023-07-31T06:15:52;18.10;99.90
13322;DHT22;6730;46.248;6.930;2023-07-31T06:18:19;18.10;99.90
13322;DHT22;6730;46.248;6.930;2023-07-31T06:20:44;18.00;99.90
13322;DHT22;6730;46.248;6.930;2023-07-31T06:23:10;17.60;99.90
13322;DHT22;6730;46.248;6.930;2023-07-31T06:25:36;17.60;99.90
13322;DHT22;6730;46.248;6.930;2023-07-31T06:28:01;17.80;99.90
13322;DHT22;6730;46.248;6.930;2023-07-31T06:30:27;17.90;99.90
13322;DHT22;6730;46.248;6.930;2023-07-31T06:32:52;18.00;99.90
13322;DHT22;6730;46.248;6.930;2023-07-31T06:35:18;18.00;99.90
13322;DHT22;6730;46.248;6.930;2023-07-31T06:37:44;18.10;99.90
13322;DHT22;6730;46.248;6.930;2023-07-31T06:40:10;18.30;99.90
13322;DHT22;6730;46.248;6.930;2023-07-31T06:42:36;18.70;99.90
13322;DHT22;6730;46.248;6.930;2023-07-31T06:45:02;18.80;99.90
13322;DHT22;6730;46.248;6.930;2023-07-31T06:47:28;19.00;99.90
13322;DHT22;6730;46.248;6.930;2023-07-31T06:49:53;19.20;99.90
13322;DHT22;6730;46.248;6.930;2023-07-31T06:52:19;19.20;99.90
13322;DHT22;6730;46.248;6.930;2023-07-31T06:55:18;19.10;99.90
13322;DHT22;6730;46.248;6.930;2023-07-31T06:57:45;19.50;99.90
13322;DHT22;6730;46.248;6.930;2023-07-31T07:00:11;19.70;99.90
13322;DHT22;6730;46.248;6.930;2023-07-31T07:02:37;19.80;99.90
13322;DHT22;6730;46.248;6.930;2023-07-31T07:05:03;20.20;99.90
13322;DHT22;6730;46.248;6.930;2023-07-31T07:07:28;20.60;99.90
13322;DHT22;6730;46.248;6.930;2023-07-31T07:09:54;20.40;99.90
13322;DHT22;6730;46.248;6.930;2023-07-31T07:12:19;20.50;99.90
13322;DHT22;6730;46.248;6.930;2023-07-31T07:14:45;20.90;99.90
13322;DHT22;6730;46.248;6.930;2023-07-31T07:17:14;20.40;99.90
13322;DHT22;6730;46.248;6.930;2023-07-31T07:19:40;20.70;99.90
13322;DHT22;6730;46.248;6.930;2023-07-31T07:22:07;21.10;99.90
13322;DHT22;6730;46.248;6.930;2023-07-31T07:24:33;21.10;99.90
13322;DHT22;6730;46.248;6.930;2023-07-31T07:26:58;21.50;99.90
13322;DHT22;6730;46.248;6.930;2023-07-31T07:29:24;21.20;99.90
13322;DHT22;6730;46.248;6.930;2023-07-31T07:31:50;21.20;99.90
13322;DHT22;6730;46.248;6.930;2023-07-31T07:34:15;21.30;99.90
13322;DHT22;6730;46.248;6.930;2023-07-31T07:36:41;21.30;99.90
13322;DHT22;6730;46.248;6.930;2023-07-31T07:39:08;21.50;99.90
13322;DHT22;6730;46.248;6.930;2023-07-31T07:41:34;21.90;99.90
13322;DHT22;6730;46.248;6.930;2023-07-31T07:43:59;21.80;99.90
13322;DHT22;6730;46.248;6.930;2023-07-31T07:46:25;20.80;99.90
13322;DHT22;6730;46.248;6.930;2023-07-31T07:48:50;21.00;99.90
13322;DHT22;6730;46.248;6.930;2023-07-31T07:51:16;21.20;99.90
13322;DHT22;6730;46.248;6.930;2023-07-31T07:53:41;21.30;99.90
13322;DHT22;6730;46.248;6.930;2023-07-31T07:56:07;21.50;99.90
13322;DHT22;6730;46.248;6.930;2023-07-31T07:58:33;21.20;99.90
13322;DHT22;6730;46.248;6.930;2023-07-31T08:00:58;21.60;99.90
13322;DHT22;6730;46.248;6.930;2023-07-31T08:03:24;22.20;99.90
13322;DHT22;6730;46.248;6.930;2023-07-31T08:05:50;22.10;99.90
13322;DHT22;6730;46.248;6.930;2023-07-31T08:08:16;21.80;99.90
13322;DHT22;6730;46.248;6.930;2023-07-31T08:10:42;22.40;99.90
13322;DHT22;6730;46.248;6.930;2023-07-31T08:13:09;22.70;99.90
13322;DHT22;6730;46.248;6.930;2023-07-31T08:15:35;22.70;99.90
13322;DHT22;6730;46.248;6.930;2023-07-31T08:18:00;22.70;99.90
13322;DHT22;6730;46.248;6.930;2023-07-31T08:20:26;23.00;99.90
13322;DHT22;6730;46.248;6.930;2023-07-31T08:22:52;22.90;99.90
13322;DHT22;6730;46.248;6.930;2023-07-31T08:25:18;23.00;99.90
13322;DHT22;6730;46.248;6.930;2023-07-31T08:27:44;23.00;99.90
13322;DHT22;6730;46.248;6.930;2023-07-31T08:30:11;23.10;99.60
13322;DHT22;6730;46.248;6.930;2023-07-31T08:32:37;23.00;99.90
13322;DHT22;6730;46.248;6.930;2023-07-31T08:35:03;22.90;99.90
13322;DHT22;6730;46.248;6.930;2023-07-31T08:37:28;22.70;99.90
13322;DHT22;6730;46.248;6.930;2023-07-31T08:39:54;22.30;99.90
13322;DHT22;6730;46.248;6.930;2023-07-31T08:42:20;21.80;99.90
13322;DHT22;6730;46.248;6.930;2023-07-31T08:44:46;22.30;99.90
13322;DHT22;6730;46.248;6.930;2023-07-31T08:47:14;22.20;99.90
13322;DHT22;6730;46.248;6.930;2023-07-31T08:49:42;22.30;99.90
13322;DHT22;6730;46.248;6.930;2023-07-31T08:52:08;22.10;99.90
13322;DHT22;6730;46.248;6.930;2023-07-31T08:54:34;22.70;99.90
13322;DHT22;6730;46.248;6.930;2023-07-31T08:57:00;22.70;99.90
13322;DHT22;6730;46.248;6.930;2023-07-31T08:59:31;21.90;99.90
13322;DHT22;6730;46.248;6.930;2023-07-31T09:01:58;21.10;99.90
13322;DHT22;6730;46.248;6.930;2023-07-31T09:04:28;20.80;99.90
13322;DHT22;6730;46.248;6.930;2023-07-31T09:07:02;20.80;99.90
13322;DHT22;6730;46.248;6.930;2023-07-31T09:09:30;20.90;99.90
13322;DHT22;6730;46.248;6.930;2023-07-31T09:11:57;21.00;99.90
13322;DHT22;6730;46.248;6.930;2023-07-31T09:14:25;20.80;99.90
13322;DHT22;6730;46.248;6.930;2023-07-31T09:16:58;21.00;99.90
13322;DHT22;6730;46.248;6.930;2023-07-31T09:19:26;20.90;99.90
13322;DHT22;6730;46.248;6.930;2023-07-31T09:21:52;20.80;99.90
13322;DHT22;6730;46.248;6.930;2023-07-31T09:24:32;21.20;99.90
13322;DHT22;6730;46.248;6.930;2023-07-31T09:26:59;21.70;99.90
13322;DHT22;6730;46.248;6.930;2023-07-31T09:29:26;22.20;99.90
13322;DHT22;6730;46.248;6.930;2023-07-31T09:31:53;22.80;99.90
13322;DHT22;6730;46.248;6.930;2023-07-31T09:34:19;23.50;99.90
13322;DHT22;6730;46.248;6.930;2023-07-31T09:36:49;22.80;99.90
13322;DHT22;6730;46.248;6.930;2023-07-31T09:39:16;22.60;99.90
13322;DHT22;6730;46.248;6.930;2023-07-31T09:41:44;23.10;99.90
13322;DHT22;6730;46.248;6.930;2023-07-31T09:44:11;23.70;99.90
13322;DHT22;6730;46.248;6.930;2023-07-31T09:46:37;23.60;99.90
13322;DHT22;6730;46.248;6.930;2023-07-31T09:49:10;22.70;99.90
13322;DHT22;6730;46.248;6.930;2023-07-31T09:51:40;22.60;99.90
13322;DHT22;6730;46.248;6.930;2023-07-31T09:54:14;22.80;99.90
13322;DHT22;6730;46.248;6.930;2023-07-31T09:56:45;22.80;99.90
13322;DHT22;6730;46.248;6.930;2023-07-31T09:59:13;22.10;99.90
13322;DHT22;6730;46.248;6.930;2023-07-31T10:01:40;22.50;99.90
13322;DHT22;6730;46.248;6.930;2023-07-31T10:04:08;21.90;99.90
13322;DHT22;6730;46.248;6.930;2023-07-31T10:06:35;22.40;99.90
13322;DHT22;6730;46.248;6.930;2023-07-31T10:09:03;22.80;99.90
13322;DHT22;6730;46.248;6.930;2023-07-31T10:11:41;22.70;99.90
13322;DHT22;6730;46.248;6.930;2023-07-31T10:14:09;21.50;99.90
13322;DHT22;6730;46.248;6.930;2023-07-31T10:16:38;20.70;99.90
13322;DHT22;6730;46.248;6.930;2023-07-31T10:19:05;21.20;99.90
13322;DHT22;6730;46.248;6.930;2023-07-31T10:21:32;21.70;99.90
13322;DHT22;6730;46.248;6.930;2023-07-31T10:24:03;21.80;99.90
13322;DHT22;6730;46.248;6.930;2023-07-31T10:26:31;21.90;99.90
13322;DHT22;6730;46.248;6.930;2023-07-31T10:28:58;22.20;99.90
13322;DHT22;6730;46.248;6.930;2023-07-31T10:31:24;22.50;99.90
13322;DHT22;6730;46.248;6.930;2023-07-31T10:33:51;21.90;99.90
13322;DHT22;6730;46.248;6.930;2023-07-31T10:36:18;21.60;99.90
13322;DHT22;6730;46.248;6.930;2023-07-31T10:38:48;22.20;99.90
13322;DHT22;6730;46.248;6.930;2023-07-31T10:41:14;21.90;99.90
13322;DHT22;6730;46.248;6.930;2023-07-31T10:43:40;22.10;99.90
13322;DHT22;6730;46.248;6.930;2023-07-31T10:46:13;22.20;99.90
13322;DHT22;6730;46.248;6.930;2023-07-31T10:48:40;22.40;99.90
13322;DHT22;6730;46.248;6.930;2023-07-31T10:51:13;22.50;99.90
13322;DHT22;6730;46.248;6.930;2023-07-31T10:53:39;22.50;99.90
13322;DHT22;6730;46.248;6.930;2023-07-31T10:56:09;22.80;99.90
13322;DHT22;6730;46.248;6.930;2023-07-31T10:58:39;23.00;99.90
13322;DHT22;6730;46.248;6.930;2023-07-31T11:01:13;23.10;99.90
13322;DHT22;6730;46.248;6.930;2023-07-31T11:03:48;23.10;99.90
13322;DHT22;6730;46.248;6.930;2023-07-31T11:06:15;23.60;99.90
13322;DHT22;6730;46.248;6.930;2023-07-31T11:08:48;23.80;99.90
13322;DHT22;6730;46.248;6.930;2023-07-31T11:11:18;23.00;99.90
13322;DHT22;6730;46.248;6.930;2023-07-31T11:13:51;22.50;99.90
13322;DHT22;6730;46.248;6.930;2023-07-31T11:16:24;22.70;99.90
13322;DHT22;6730;46.248;6.930;2023-07-31T11:18:51;23.00;99.90
13322;DHT22;6730;46.248;6.930;2023-07-31T11:21:23;23.10;99.90
13322;DHT22;6730;46.248;6.930;2023-07-31T11:23:52;23.30;99.90
13322;DHT22;6730;46.248;6.930;2023-07-31T11:26:19;23.20;99.90
13322;DHT22;6730;46.248;6.930;2023-07-31T11:28:49;23.30;99.90
13322;DHT22;6730;46.248;6.930;2023-07-31T11:31:18;23.00;99.90
13322;DHT22;6730;46.248;6.930;2023-07-31T11:33:44;22.60;99.90
13322;DHT22;6730;46.248;6.930;2023-07-31T11:36:24;22.40;99.90
13322;DHT22;6730;46.248;6.930;2023-07-31T11:38:50;22.20;99.90
13322;DHT22;6730;46.248;6.930;2023-07-31T11:41:19;22.10;99.90
13322;DHT22;6730;46.248;6.930;2023-07-31T11:43:46;22.10;99.90
13322;DHT22;6730;46.248;6.930;2023-07-31T11:46:13;22.20;99.90
13322;DHT22;6730;46.248;6.930;2023-07-31T11:48:41;22.30;99.90
13322;DHT22;6730;46.248;6.930;2023-07-31T11:51:11;22.40;99.90
13322;DHT22;6730;46.248;6.930;2023-07-31T11:53:58;22.30;99.90
13322;DHT22;6730;46.248;6.930;2023-07-31T11:56:25;22.40;99.90
13322;DHT22;6730;46.248;6.930;2023-07-31T11:58:59;22.30;99.90
13322;DHT22;6730;46.248;6.930;2023-07-31T12:01:33;22.20;99.80
13322;DHT22;6730;46.248;6.930;2023-07-31T12:03:59;22.10;99.90
13322;DHT22;6730;46.248;6.930;2023-07-31T12:06:37;21.90;99.90
13322;DHT22;6730;46.248;6.930;2023-07-31T12:09:04;22.10;99.90
13322;DHT22;6730;46.248;6.930;2023-07-31T12:11:32;22.10;99.90
13322;DHT22;6730;46.248;6.930;2023-07-31T12:14:26;22.40;99.90
13322;DHT22;6730;46.248;6.930;2023-07-31T12:16:58;22.80;99.90
13322;DHT22;6730;46.248;6.930;2023-07-31T12:19:30;23.10;99.90
13322;DHT22;6730;46.248;6.930;2023-07-31T12:21:59;23.00;99.80
13322;DHT22;6730;46.248;6.930;2023-07-31T12:24:28;22.90;99.90
13322;DHT22;6730;46.248;6.930;2023-07-31T12:26:54;22.90;99.90
13322;DHT22;6730;46.248;6.930;2023-07-31T12:29:22;22.90;99.90
13322;DHT22;6730;46.248;6.930;2023-07-31T12:31:50;22.80;99.90
13322;DHT22;6730;46.248;6.930;2023-07-31T12:34:20;23.10;99.70
13322;DHT22;6730;46.248;6.930;2023-07-31T12:36:48;23.30;99.40
13322;DHT22;6730;46.248;6.930;2023-07-31T12:39:20;23.30;99.90
13322;DHT22;6730;46.248;6.930;2023-07-31T12:41:46;23.70;99.80
13322;DHT22;6730;46.248;6.930;2023-07-31T12:44:11;23.60;98.80
13322;DHT22;6730;46.248;6.930;2023-07-31T12:46:37;23.60;99.90
13322;DHT22;6730;46.248;6.930;2023-07-31T12:49:05;23.70;99.40
13322;DHT22;6730;46.248;6.930;2023-07-31T12:51:30;23.70;98.20
13322;DHT22;6730;46.248;6.930;2023-07-31T12:53:58;23.70;99.90
13322;DHT22;6730;46.248;6.930;2023-07-31T12:56:26;23.10;99.40
13322;DHT22;6730;46.248;6.930;2023-07-31T12:58:52;22.70;99.90
13322;DHT22;6730;46.248;6.930;2023-07-31T13:01:18;22.90;99.50
13322;DHT22;6730;46.248;6.930;2023-07-31T13:03:43;22.90;99.90
13322;DHT22;6730;46.248;6.930;2023-07-31T13:06:09;22.80;99.70
13322;DHT22;6730;46.248;6.930;2023-07-31T13:08:41;22.70;99.80
13322;DHT22;6730;46.248;6.930;2023-07-31T13:11:09;22.80;99.90
13322;DHT22;6730;46.248;6.930;2023-07-31T13:13:34;22.70;99.80
13322;DHT22;6730;46.248;6.930;2023-07-31T13:16:03;22.40;99.90
13322;DHT22;6730;46.248;6.930;2023-07-31T13:18:31;22.40;99.80
13322;DHT22;6730;46.248;6.930;2023-07-31T13:20:59;22.60;99.90
13322;DHT22;6730;46.248;6.930;2023-07-31T13:23:25;22.70;99.90
13322;DHT22;6730;46.248;6.930;2023-07-31T13:25:56;22.90;99.90
13322;DHT22;6730;46.248;6.930;2023-07-31T13:28:24;23.30;99.90
13322;DHT22;6730;46.248;6.930;2023-07-31T13:30:52;23.30;99.90
13322;DHT22;6730;46.248;6.930;2023-07-31T13:33:18;22.60;99.90
13322;DHT22;6730;46.248;6.930;2023-07-31T13:35:44;22.50;99.90
13322;DHT22;6730;46.248;6.930;2023-07-31T13:38:09;22.20;99.90
13322;DHT22;6730;46.248;6.930;2023-07-31T13:40:35;22.30;99.90
13322;DHT22;6730;46.248;6.930;2023-07-31T13:43:01;22.50;99.90
13322;DHT22;6730;46.248;6.930;2023-07-31T13:45:27;23.00;99.90
13322;DHT22;6730;46.248;6.930;2023-07-31T13:47:52;23.30;99.90
13322;DHT22;6730;46.248;6.930;2023-07-31T13:50:18;23.50;99.90
13322;DHT22;6730;46.248;6.930;2023-07-31T13:52:46;23.40;99.90
13322;DHT22;6730;46.248;6.930;2023-07-31T13:55:12;23.20;99.90
13322;DHT22;6730;46.248;6.930;2023-07-31T13:57:37;23.40;99.90
13322;DHT22;6730;46.248;6.930;2023-07-31T14:00:03;23.50;99.90
13322;DHT22;6730;46.248;6.930;2023-07-31T14:02:29;23.60;98.90
13322;DHT22;6730;46.248;6.930;2023-07-31T14:04:55;23.60;99.00
13322;DHT22;6730;46.248;6.930;2023-07-31T14:07:21;23.50;99.40
13322;DHT22;6730;46.248;6.930;2023-07-31T14:09:46;23.60;99.10
13322;DHT22;6730;46.248;6.930;2023-07-31T14:12:12;23.50;98.30
13322;DHT22;6730;46.248;6.930;2023-07-31T14:14:38;23.60;99.40
13322;DHT22;6730;46.248;6.930;2023-07-31T14:17:03;23.60;98.40
13322;DHT22;6730;46.248;6.930;2023-07-31T14:19:29;23.70;99.10
13322;DHT22;6730;46.248;6.930;2023-07-31T14:21:55;23.50;98.20
13322;DHT22;6730;46.248;6.930;2023-07-31T14:24:20;23.40;99.30
13322;DHT22;6730;46.248;6.930;2023-07-31T14:26:46;23.00;98.00
13322;DHT22;6730;46.248;6.930;2023-07-31T14:29:12;22.90;99.60
13322;DHT22;6730;46.248;6.930;2023-07-31T14:31:37;22.80;99.10
13322;DHT22;6730;46.248;6.930;2023-07-31T14:34:03;23.00;99.20
13322;DHT22;6730;46.248;6.930;2023-07-31T14:36:29;23.30;98.80
13322;DHT22;6730;46.248;6.930;2023-07-31T14:38:54;23.40;98.60
13322;DHT22;6730;46.248;6.930;2023-07-31T14:41:20;23.50;97.70
13322;DHT22;6730;46.248;6.930;2023-07-31T14:43:46;23.50;97.70
13322;DHT22;6730;46.248;6.930;2023-07-31T14:46:13;23.50;98.20
13322;DHT22;6730;46.248;6.930;2023-07-31T14:48:39;23.50;97.20
13322;DHT22;6730;46.248;6.930;2023-07-31T14:51:05;23.50;97.70
13322;DHT22;6730;46.248;6.930;2023-07-31T14:53:31;23.50;97.40
13322;DHT22;6730;46.248;6.930;2023-07-31T14:55:56;23.60;96.90
13322;DHT22;6730;46.248;6.930;2023-07-31T14:58:22;23.10;98.00
13322;DHT22;6730;46.248;6.930;2023-07-31T15:00:48;23.00;98.10
13322;DHT22;6730;46.248;6.930;2023-07-31T15:03:13;23.00;98.10
13322;DHT22;6730;46.248;6.930;2023-07-31T15:05:39;23.20;97.70
13322;DHT22;6730;46.248;6.930;2023-07-31T15:08:05;23.40;97.20
13322;DHT22;6730;46.248;6.930;2023-07-31T15:10:31;23.60;97.30
13322;DHT22;6730;46.248;6.930;2023-07-31T15:12:57;23.60;97.10
13322;DHT22;6730;46.248;6.930;2023-07-31T15:15:22;23.60;96.30
13322;DHT22;6730;46.248;6.930;2023-07-31T15:17:49;23.50;96.60
13322;DHT22;6730;46.248;6.930;2023-07-31T15:20:14;23.50;96.90
13322;DHT22;6730;46.248;6.930;2023-07-31T15:22:40;23.60;96.50
13322;DHT22;6730;46.248;6.930;2023-07-31T15:25:07;23.70;96.70
13322;DHT22;6730;46.248;6.930;2023-07-31T15:27:33;23.90;96.50
13322;DHT22;6730;46.248;6.930;2023-07-31T15:29:59;23.50;96.60
13322;DHT22;6730;46.248;6.930;2023-07-31T15:32:24;22.90;97.50
13322;DHT22;6730;46.248;6.930;2023-07-31T15:34:50;22.60;97.60
13322;DHT22;6730;46.248;6.930;2023-07-31T15:37:16;22.40;97.80
13322;DHT22;6730;46.248;6.930;2023-07-31T15:39:43;22.40;98.70
13322;DHT22;6730;46.248;6.930;2023-07-31T15:42:08;22.50;97.90
13322;DHT22;6730;46.248;6.930;2023-07-31T15:44:34;22.70;97.60
13322;DHT22;6730;46.248;6.930;2023-07-31T15:47:00;22.90;98.30
13322;DHT22;6730;46.248;6.930;2023-07-31T15:49:26;23.40;99.90
13322;DHT22;6730;46.248;6.930;2023-07-31T15:51:51;23.80;98.80